sensor_id;sensor_type;location;lat;lon;timestamp;temperature;humidity
30520;DHT22;17300;50.374;8.006;2024-01-30T06:19:51;6.70;44.50
30520;DHT22;17300;50.374;8.006;2024-01-30T06:22:18;6.60;44.20
30520;DHT22;17300;50.374;8.006;2024-01-30T06:24:45;6.60;44.30
30520;DHT22;17300;50.374;8.006;2024-01-30T06:27:13;6.60;44.40
30520;DHT22;17300;50.374;8.006;2024-01-30T06:29:40;6.60;44.60
30520;DHT22;17300;50.374;8.006;2024-01-30T06:32:07;6.50;44.60
30520;DHT22;17300;50.374;8.006;2024-01-30T06:34:33;6.60;44.70
30520;DHT22;17300;50.374;8.006;2024-01-30T06:37:01;6.60;44.80
30520;DHT22;17300;50.374;8.006;2024-01-30T06:39:28;6.60;44.80
30520;DHT22;17300;50.374;8.006;2024-01-30T06:41:55;6.60;44.80
30520;DHT22;17300;50.374;8.006;2024-01-30T06:44:21;6.60;44.80
30520;DHT22;17300;50.374;8.006;2024-01-30T06:46:48;6.50;44.70
30520;DHT22;17300;50.374;8.006;2024-01-30T06:49:15;6.60;44.80
30520;DHT22;17300;50.374;8.006;2024-01-30T06:51:55;6.60;44.80
30520;DHT22;17300;50.374;8.006;2024-01-30T06:54:24;6.60;44.80
30520;DHT22;17300;50.374;8.006;2024-01-30T06:56:51;6.60;44.80
30520;DHT22;17300;50.374;8.006;2024-01-30T06:59:18;6.60;44.90
30520;DHT22;17300;50.374;8.006;2024-01-30T07:01:45;6.60;44.80
30520;DHT22;17300;50.374;8.006;2024-01-30T07:04:12;6.60;44.80
30520;DHT22;17300;50.374;8.006;2024-01-30T07:06:40;6.60;44.80
30520;DHT22;17300;50.374;8.006;2024-01-30T07:09:07;6.60;44.70
30520;DHT22;17300;50.374;8.006;2024-01-30T07:11:36;6.60;44.70
30520;DHT22;17300;50.374;8.006;2024-01-30T07:17:13;6.60;44.90
30520;DHT22;17300;50.374;8.006;2024-01-30T07:19:47;6.60;44.70
30520;DHT22;17300;50.374;8.006;2024-01-30T07:22:17;6.60;44.80
30520;DHT22;17300;50.374;8.006;2024-01-30T07:24:53;6.60;44.80
30520;DHT22;17300;50.374;8.006;2024-01-30T07:27:22;6.60;44.90
30520;DHT22;17300;50.374;8.006;2024-01-30T07:29:49;6.60;44.90
30520;DHT22;17300;50.374;8.006;2024-01-30T07:32:16;6.60;44.90
30520;DHT22;17300;50.374;8.006;2024-01-30T07:34:42;6.60;44.90
30520;DHT22;17300;50.374;8.006;2024-01-30T07:37:10;6.60;44.90
30520;DHT22;17300;50.374;8.006;2024-01-30T07:42:58;6.70;45.30
30520;DHT22;17300;50.374;8.006;2024-01-30T07:49:13;6.70;45.30
30520;DHT22;17300;50.374;8.006;2024-01-30T07:51:45;6.70;45.30
30520;DHT22;17300;50.374;8.006;2024-01-30T07:54:15;6.70;45.20
30520;DHT22;17300;50.374;8.006;2024-01-30T07:56:43;6.70;45.40
30520;DHT22;17300;50.374;8.006;2024-01-30T07:59:13;6.70;45.50
30520;DHT22;17300;50.374;8.006;2024-01-30T08:01:54;6.70;45.60
30520;DHT22;17300;50.374;8.006;2024-01-30T08:04:21;6.80;45.70
30520;DHT22;17300;50.374;8.006;2024-01-30T08:06:47;6.80;45.90
30520;DHT22;17300;50.374;8.006;2024-01-30T08:09:14;6.90;46.10
30520;DHT22;17300;50.374;8.006;2024-01-30T08:11:41;6.90;46.20
30520;DHT22;17300;50.374;8.006;2024-01-30T08:14:07;7.00;46.20
30520;DHT22;17300;50.374;8.006;2024-01-30T08:16:36;7.10;46.30
30520;DHT22;17300;50.374;8.006;2024-01-30T08:19:02;7.10;46.40
30520;DHT22;17300;50.374;8.006;2024-01-30T08:21:29;7.20;46.60
30520;DHT22;17300;50.374;8.006;2024-01-30T08:24:01;7.20;46.60
30520;DHT22;17300;50.374;8.006;2024-01-30T08:26:28;7.30;46.70
30520;DHT22;17300;50.374;8.006;2024-01-30T08:28:55;7.40;46.80
30520;DHT22;17300;50.374;8.006;2024-01-30T08:31:30;7.40;46.80
30520;DHT22;17300;50.374;8.006;2024-01-30T08:33:58;7.50;46.90
30520;DHT22;17300;50.374;8.006;2024-01-30T08:36:26;7.60;46.70
30520;DHT22;17300;50.374;8.006;2024-01-30T08:38:54;7.60;46.70
30520;DHT22;17300;50.374;8.006;2024-01-30T08:41:21;7.70;46.60
30520;DHT22;17300;50.374;8.006;2024-01-30T08:43:48;7.70;46.60
30520;DHT22;17300;50.374;8.006;2024-01-30T08:46:17;7.70;46.60
30520;DHT22;17300;50.374;8.006;2024-01-30T08:48:44;7.70;46.60
30520;DHT22;17300;50.374;8.006;2024-01-30T08:51:12;7.80;46.60
30520;DHT22;17300;50.374;8.006;2024-01-30T08:53:40;7.80;46.60
30520;DHT22;17300;50.374;8.006;2024-01-30T08:56:07;7.80;46.50
30520;DHT22;17300;50.374;8.006;2024-01-30T08:58:34;7.90;46.60
30520;DHT22;17300;50.374;8.006;2024-01-30T09:01:16;7.90;46.50
30520;DHT22;17300;50.374;8.006;2024-01-30T09:04:32;7.90;46.70
30520;DHT22;17300;50.374;8.006;2024-01-30T09:13:07;7.90;46.90
30520;DHT22;17300;50.374;8.006;2024-01-30T09:21:28;8.00;46.80
30520;DHT22;17300;50.374;8.006;2024-01-30T09:54:14;8.20;47.20
30520;DHT22;17300;50.374;8.006;2024-01-30T10:14:48;8.40;47.90
30520;DHT22;17300;50.374;8.006;2024-01-30T10:21:02;8.50;48.00
30520;DHT22;17300;50.374;8.006;2024-01-30T10:31:15;8.70;48.10
30520;DHT22;17300;50.374;8.006;2024-01-30T10:34:36;8.70;48.10
30520;DHT22;17300;50.374;8.006;2024-01-30T10:41:20;8.80;48.20
30520;DHT22;17300;50.374;8.006;2024-01-30T10:44:10;8.80;48.20
30520;DHT22;17300;50.374;8.006;2024-01-30T10:46:45;8.90;48.20
30520;DHT22;17300;50.374;8.006;2024-01-30T10:49:28;8.90;48.20
30520;DHT22;17300;50.374;8.006;2024-01-30T10:52:27;9.00;48.70
30520;DHT22;17300;50.374;8.006;2024-01-30T11:06:43;9.60;49.60
30520;DHT22;17300;50.374;8.006;2024-01-30T11:09:37;9.80;49.80
30520;DHT22;17300;50.374;8.006;2024-01-30T11:15:18;10.20;48.90
30520;DHT22;17300;50.374;8.006;2024-01-30T11:26:45;10.90;50.30
30520;DHT22;17300;50.374;8.006;2024-01-30T11:47:00;13.50;51.40
30520;DHT22;17300;50.374;8.006;2024-01-30T11:53:00;14.30;50.90
30520;DHT22;17300;50.374;8.006;2024-01-30T11:58:49;14.80;50.00
30520;DHT22;17300;50.374;8.006;2024-01-30T12:01:29;15.00;50.30
30520;DHT22;17300;50.374;8.006;2024-01-30T12:03:59;15.20;49.50
30520;DHT22;17300;50.374;8.006;2024-01-30T12:06:29;15.30;50.00
30520;DHT22;17300;50.374;8.006;2024-01-30T12:09:07;15.40;50.00
30520;DHT22;17300;50.374;8.006;2024-01-30T12:11:44;15.60;49.90
30520;DHT22;17300;50.374;8.006;2024-01-30T12:14:14;15.70;49.10
30520;DHT22;17300;50.374;8.006;2024-01-30T12:16:48;15.80;49.20
30520;DHT22;17300;50.374;8.006;2024-01-30T12:19:23;15.80;48.40
30520;DHT22;17300;50.374;8.006;2024-01-30T12:21:54;15.90;48.10
30520;DHT22;17300;50.374;8.006;2024-01-30T12:24:31;15.90;47.70
30520;DHT22;17300;50.374;8.006;2024-01-30T12:26:59;15.80;47.10
30520;DHT22;17300;50.374;8.006;2024-01-30T12:29:26;15.80;47.30
30520;DHT22;17300;50.374;8.006;2024-01-30T12:31:53;15.80;47.30
30520;DHT22;17300;50.374;8.006;2024-01-30T12:34:21;15.80;47.40
30520;DHT22;17300;50.374;8.006;2024-01-30T12:36:48;15.80;47.60
30520;DHT22;17300;50.374;8.006;2024-01-30T12:39:15;15.80;47.60
30520;DHT22;17300;50.374;8.006;2024-01-30T12:41:42;15.80;47.80
30520;DHT22;17300;50.374;8.006;2024-01-30T12:44:09;15.80;47.90
30520;DHT22;17300;50.374;8.006;2024-01-30T12:46:36;15.90;47.90
30520;DHT22;17300;50.374;8.006;2024-01-30T12:49:03;15.90;47.60
30520;DHT22;17300;50.374;8.006;2024-01-30T12:51:34;15.90;47.50
30520;DHT22;17300;50.374;8.006;2024-01-30T12:54:05;15.90;47.30
30520;DHT22;17300;50.374;8.006;2024-01-30T12:56:32;15.90;47.00
30520;DHT22;17300;50.374;8.006;2024-01-30T12:59:01;15.90;46.90
30520;DHT22;17300;50.374;8.006;2024-01-30T13:01:28;15.80;46.60
30520;DHT22;17300;50.374;8.006;2024-01-30T13:07:24;15.70;46.60
30520;DHT22;17300;50.374;8.006;2024-01-30T13:09:51;15.70;46.90
30520;DHT22;17300;50.374;8.006;2024-01-30T13:12:17;15.70;47.00
30520;DHT22;17300;50.374;8.006;2024-01-30T13:14:44;15.60;47.00
30520;DHT22;17300;50.374;8.006;2024-01-30T13:21:13;15.60;46.90
30520;DHT22;17300;50.374;8.006;2024-01-30T13:27:05;15.60;46.60
30520;DHT22;17300;50.374;8.006;2024-01-30T13:29:44;15.60;46.60
30520;DHT22;17300;50.374;8.006;2024-01-30T13:32:42;15.50;46.40
30520;DHT22;17300;50.374;8.006;2024-01-30T13:35:11;15.40;46.30
30520;DHT22;17300;50.374;8.006;2024-01-30T13:41:06;15.10;46.10
30520;DHT22;17300;50.374;8.006;2024-01-30T13:43:40;15.00;46.10
30520;DHT22;17300;50.374;8.006;2024-01-30T13:52:50;14.70;46.50
30520;DHT22;17300;50.374;8.006;2024-01-30T13:55:17;14.60;46.40
30520;DHT22;17300;50.374;8.006;2024-01-30T13:57:44;14.50;46.60
30520;DHT22;17300;50.374;8.006;2024-01-30T14:00:13;14.40;46.60
30520;DHT22;17300;50.374;8.006;2024-01-30T14:02:41;14.30;46.70
30520;DHT22;17300;50.374;8.006;2024-01-30T14:05:10;14.30;46.80
30520;DHT22;17300;50.374;8.006;2024-01-30T14:07:52;14.20;46.90
30520;DHT22;17300;50.374;8.006;2024-01-30T14:10:39;14.10;47.00
30520;DHT22;17300;50.374;8.006;2024-01-30T14:17:07;14.10;47.20
30520;DHT22;17300;50.374;8.006;2024-01-30T14:19:34;14.00;46.80
30520;DHT22;17300;50.374;8.006;2024-01-30T14:22:04;14.00;47.00
30520;DHT22;17300;50.374;8.006;2024-01-30T14:24:31;13.90;47.00
30520;DHT22;17300;50.374;8.006;2024-01-30T14:26:58;13.80;47.00
30520;DHT22;17300;50.374;8.006;2024-01-30T14:29:25;13.80;47.10
30520;DHT22;17300;50.374;8.006;2024-01-30T14:31:51;13.70;47.10
30520;DHT22;17300;50.374;8.006;2024-01-30T14:34:21;13.70;47.20
30520;DHT22;17300;50.374;8.006;2024-01-30T14:36:48;13.60;47.30
30520;DHT22;17300;50.374;8.006;2024-01-30T14:49:51;13.60;47.40
30520;DHT22;17300;50.374;8.006;2024-01-30T14:52:18;13.50;46.60
30520;DHT22;17300;50.374;8.006;2024-01-30T14:54:45;13.40;47.00
30520;DHT22;17300;50.374;8.006;2024-01-30T14:57:11;13.30;47.10
30520;DHT22;17300;50.374;8.006;2024-01-30T14:59:39;13.20;47.30
30520;DHT22;17300;50.374;8.006;2024-01-30T15:02:06;13.20;47.50
30520;DHT22;17300;50.374;8.006;2024-01-30T15:04:33;13.10;47.60
30520;DHT22;17300;50.374;8.006;2024-01-30T15:07:01;13.10;47.60
30520;DHT22;17300;50.374;8.006;2024-01-30T15:09:28;13.10;47.80
30520;DHT22;17300;50.374;8.006;2024-01-30T15:11:55;13.10;47.90
30520;DHT22;17300;50.374;8.006;2024-01-30T15:14:22;13.10;48.00
30520;DHT22;17300;50.374;8.006;2024-01-30T15:16:49;13.00;48.00
30520;DHT22;17300;50.374;8.006;2024-01-30T15:23:13;13.00;48.60
30520;DHT22;17300;50.374;8.006;2024-01-30T15:26:12;13.00;48.60
30520;DHT22;17300;50.374;8.006;2024-01-30T15:31:57;13.00;48.80
30520;DHT22;17300;50.374;8.006;2024-01-30T16:49:13;12.50;49.50
30520;DHT22;17300;50.374;8.006;2024-01-30T16:52:00;12.40;49.00
30520;DHT22;17300;50.374;8.006;2024-01-30T16:57:58;12.40;49.80
30520;DHT22;17300;50.374;8.006;2024-01-30T17:00:31;12.40;49.20
30520;DHT22;17300;50.374;8.006;2024-01-30T17:04:43;12.40;49.30
30520;DHT22;17300;50.374;8.006;2024-01-30T17:12:56;12.20;49.90
30520;DHT22;17300;50.374;8.006;2024-01-30T17:22:17;12.20;50.00
30520;DHT22;17300;50.374;8.006;2024-01-30T17:24:46;12.20;49.40
30520;DHT22;17300;50.374;8.006;2024-01-30T17:27:14;12.10;49.40
30520;DHT22;17300;50.374;8.006;2024-01-30T17:30:11;12.10;49.60
30520;DHT22;17300;50.374;8.006;2024-01-30T17:32:55;12.10;50.20
30520;DHT22;17300;50.374;8.006;2024-01-30T17:35:24;12.10;49.50
30520;DHT22;17300;50.374;8.006;2024-01-30T17:37:52;12.10;49.90
30520;DHT22;17300;50.374;8.006;2024-01-30T17:40:18;12.10;49.90
30520;DHT22;17300;50.374;8.006;2024-01-30T17:42:48;12.00;49.80
30520;DHT22;17300;50.374;8.006;2024-01-30T17:45:15;12.00;49.80
30520;DHT22;17300;50.374;8.006;2024-01-30T17:47:42;12.00;49.80
30520;DHT22;17300;50.374;8.006;2024-01-30T17:53:50;12.00;50.70
30520;DHT22;17300;50.374;8.006;2024-01-30T17:56:52;12.00;50.70
30520;DHT22;17300;50.374;8.006;2024-01-30T21:06:26;13.10;53.60
30520;DHT22;17300;50.374;8.006;2024-01-30T21:12:11;13.00;53.80
30520;DHT22;17300;50.374;8.006;2024-01-30T21:14:46;13.10;54.00
30520;DHT22;17300;50.374;8.006;2024-01-30T21:17:13;13.10;53.60
30520;DHT22;17300;50.374;8.006;2024-01-30T21:19:40;13.10;53.70
30520;DHT22;17300;50.374;8.006;2024-01-30T21:22:07;13.10;53.70
30520;DHT22;17300;50.374;8.006;2024-01-30T21:24:34;13.00;53.70
30520;DHT22;17300;50.374;8.006;2024-01-30T21:27:01;13.10;53.70
30520;DHT22;17300;50.374;8.006;2024-01-30T21:29:27;13.00;53.70
30520;DHT22;17300;50.374;8.006;2024-01-30T21:31:54;13.00;53.70
30520;DHT22;17300;50.374;8.006;2024-01-30T21:34:21;13.00;53.70
30520;DHT22;17300;50.374;8.006;2024-01-30T21:36:47;13.00;53.80
30520;DHT22;17300;50.374;8.006;2024-01-30T21:39:15;13.00;53.80
30520;DHT22;17300;50.374;8.006;2024-01-30T21:41:42;13.00;53.80
30520;DHT22;17300;50.374;8.006;2024-01-30T21:44:09;13.00;53.70
30520;DHT22;17300;50.374;8.006;2024-01-30T21:46:36;13.00;53.70
30520;DHT22;17300;50.374;8.006;2024-01-30T21:49:02;13.00;53.70
30520;DHT22;17300;50.374;8.006;2024-01-30T21:51:29;13.00;53.80
30520;DHT22;17300;50.374;8.006;2024-01-30T21:53:56;13.00;53.80
30520;DHT22;17300;50.374;8.006;2024-01-30T21:56:24;13.00;53.70
30520;DHT22;17300;50.374;8.006;2024-01-30T21:58:50;13.00;54.00
30520;DHT22;17300;50.374;8.006;2024-01-30T22:01:17;13.00;53.70
30520;DHT22;17300;50.374;8.006;2024-01-30T22:03:44;13.00;53.70
30520;DHT22;17300;50.374;8.006;2024-01-30T22:06:11;13.00;53.70
30520;DHT22;17300;50.374;8.006;2024-01-30T22:08:39;13.00;53.60
30520;DHT22;17300;50.374;8.006;2024-01-30T22:11:06;13.00;53.40
30520;DHT22;17300;50.374;8.006;2024-01-30T22:13:36;13.00;53.40
30520;DHT22;17300;50.374;8.006;2024-01-30T22:16:03;13.00;53.30
30520;DHT22;17300;50.374;8.006;2024-01-30T22:18:29;13.00;53.20
30520;DHT22;17300;50.374;8.006;2024-01-30T22:20:56;13.00;53.20
30520;DHT22;17300;50.374;8.006;2024-01-30T22:23:23;13.00;53.10
30520;DHT22;17300;50.374;8.006;2024-01-30T22:25:50;13.00;53.00
30520;DHT22;17300;50.374;8.006;2024-01-30T22:28:16;13.00;53.00
30520;DHT22;17300;50.374;8.006;2024-01-30T22:30:44;13.00;52.90
30520;DHT22;17300;50.374;8.006;2024-01-30T22:33:11;13.00;52.90
30520;DHT22;17300;50.374;8.006;2024-01-30T22:35:38;13.10;53.00
30520;DHT22;17300;50.374;8.006;2024-01-30T22:38:05;13.10;52.90
30520;DHT22;17300;50.374;8.006;2024-01-30T22:40:33;13.10;52.80
30520;DHT22;17300;50.374;8.006;2024-01-30T22:43:00;13.10;52.80
30520;DHT22;17300;50.374;8.006;2024-01-30T22:45:26;13.10;52.70
30520;DHT22;17300;50.374;8.006;2024-01-30T22:47:55;13.10;52.70
30520;DHT22;17300;50.374;8.006;2024-01-30T22:50:21;13.10;52.70
30520;DHT22;17300;50.374;8.006;2024-01-30T22:52:48;13.10;52.50
30520;DHT22;17300;50.374;8.006;2024-01-30T22:55:15;13.10;52.50
30520;DHT22;17300;50.374;8.006;2024-01-30T22:57:42;13.10;52.50
30520;DHT22;17300;50.374;8.006;2024-01-30T23:00:09;13.20;52.50
30520;DHT22;17300;50.374;8.006;2024-01-30T23:02:40;13.10;52.40
30520;DHT22;17300;50.374;8.006;2024-01-30T23:05:09;13.10;52.40
30520;DHT22;17300;50.374;8.006;2024-01-30T23:07:36;13.20;52.50
30520;DHT22;17300;50.374;8.006;2024-01-30T23:10:06;13.20;52.40
30520;DHT22;17300;50.374;8.006;2024-01-30T23:12:34;13.10;52.40
30520;DHT22;17300;50.374;8.006;2024-01-30T23:15:01;13.20;52.30
30520;DHT22;17300;50.374;8.006;2024-01-30T23:17:28;13.20;52.40
30520;DHT22;17300;50.374;8.006;2024-01-30T23:19:54;13.20;52.30
30520;DHT22;17300;50.374;8.006;2024-01-30T23:22:23;13.10;52.20
30520;DHT22;17300;50.374;8.006;2024-01-30T23:24:49;13.10;52.20
30520;DHT22;17300;50.374;8.006;2024-01-30T23:27:16;13.10;52.20
30520;DHT22;17300;50.374;8.006;2024-01-30T23:29:43;13.10;52.20
30520;DHT22;17300;50.374;8.006;2024-01-30T23:32:10;13.10;52.10
30520;DHT22;17300;50.374;8.006;2024-01-30T23:34:37;13.10;52.10
30520;DHT22;17300;50.374;8.006;2024-01-30T23:37:03;13.10;52.20
30520;DHT22;17300;50.374;8.006;2024-01-30T23:39:32;13.00;52.10
30520;DHT22;17300;50.374;8.006;2024-01-30T23:41:59;13.10;52.20
30520;DHT22;17300;50.374;8.006;2024-01-30T23:44:26;13.10;52.20
30520;DHT22;17300;50.374;8.006;2024-01-30T23:46:52;13.10;52.80
30520;DHT22;17300;50.374;8.006;2024-01-30T23:49:19;13.00;52.10
30520;DHT22;17300;50.374;8.006;2024-01-30T23:51:47;13.00;52.10
30520;DHT22;17300;50.374;8.006;2024-01-30T23:54:13;13.00;52.10
30520;DHT22;17300;50.374;8.006;2024-01-30T23:56:42;13.00;52.10
30520;DHT22;17300;50.374;8.006;2024-01-30T23:59:10;13.00;52.20
